createdAt,value
2022-09-21T00:00:09.949Z,26.60
2022-09-21T00:02:40.968Z,26.60
2022-09-21T00:05:11.341Z,26.60
2022-09-21T00:07:42.602Z,26.60
2022-09-21T00:10:16.540Z,26.60
2022-09-21T00:12:48.358Z,26.60
2022-09-21T00:15:18.056Z,26.60
2022-09-21T00:17:49.237Z,26.60
2022-09-21T00:20:19.979Z,26.60
2022-09-21T00:22:50.973Z,26.60
2022-09-21T00:25:22.905Z,26.60
2022-09-21T00:27:53.185Z,26.60
2022-09-21T00:30:26.094Z,26.60
2022-09-21T00:32:57.185Z,26.60
2022-09-21T00:35:28.790Z,26.70
2022-09-21T00:38:04.702Z,26.60
2022-09-21T00:40:35.268Z,26.70
2022-09-21T00:43:17.826Z,26.70
2022-09-21T00:45:50.616Z,26.60
2022-09-21T00:48:22.204Z,26.60
2022-09-21T00:50:58.234Z,26.60
2022-09-21T00:53:28.490Z,26.60
2022-09-21T00:56:06.694Z,26.60
2022-09-21T00:58:49.918Z,26.60
2022-09-21T01:01:29.990Z,26.60
2022-09-21T01:04:01.825Z,26.60
2022-09-21T01:06:34.253Z,26.60
2022-09-21T01:09:05.772Z,26.60
2022-09-21T01:11:35.949Z,26.50
2022-09-21T01:14:32.033Z,26.60
2022-09-21T01:17:04.346Z,26.60
2022-09-21T01:19:57.392Z,26.70
2022-09-21T01:22:43.370Z,26.60
2022-09-21T01:25:37.150Z,26.60
2022-09-21T01:28:32.110Z,26.60
2022-09-21T01:31:10.634Z,26.60
2022-09-21T01:33:55.347Z,26.60
2022-09-21T01:36:29.940Z,26.60
2022-09-21T01:39:03.670Z,26.70
2022-09-21T01:41:39.450Z,26.60
2022-09-21T01:44:26.288Z,26.60
2022-09-21T01:46:57.318Z,26.70
2022-09-21T01:49:40.690Z,26.60
2022-09-21T01:52:23.895Z,26.70
2022-09-21T01:55:12.251Z,26.70
2022-09-21T01:57:49.175Z,26.70
2022-09-21T02:00:19.174Z,26.60
2022-09-21T02:02:58.917Z,26.60
2022-09-21T02:05:32.765Z,26.60
2022-09-21T02:08:07.738Z,26.60
2022-09-21T02:10:46.721Z,26.60
2022-09-21T02:13:20.447Z,26.70
2022-09-21T02:15:57.633Z,26.60
2022-09-21T02:19:01.809Z,26.60
2022-09-21T02:21:34.757Z,26.60
2022-09-21T02:24:47.919Z,26.70
2022-09-21T02:27:44.810Z,26.70
2022-09-21T02:30:33.187Z,26.60
2022-09-21T02:33:14.571Z,26.60
2022-09-21T02:35:57.195Z,26.70
2022-09-21T02:38:53.977Z,26.60
2022-09-21T02:41:38.219Z,26.60
2022-09-21T02:44:35.816Z,26.60
2022-09-21T02:47:31.739Z,26.70
2022-09-21T02:50:20.782Z,26.60
2022-09-21T02:52:50.747Z,26.70
2022-09-21T02:55:19.897Z,26.60
2022-09-21T02:57:52.688Z,26.60
2022-09-21T03:00:24.851Z,26.60
2022-09-21T03:02:55.105Z,26.60
2022-09-21T03:05:29.966Z,26.60
2022-09-21T03:07:58.439Z,26.70
2022-09-21T03:10:30.225Z,26.60
2022-09-21T03:13:07.465Z,26.70
2022-09-21T03:15:38.920Z,26.70
2022-09-21T03:18:15.040Z,26.60
2022-09-21T03:20:49.545Z,26.60
2022-09-21T03:23:18.353Z,26.70
2022-09-21T03:25:49.640Z,26.70
2022-09-21T03:28:21.143Z,26.70
2022-09-21T03:30:54.762Z,26.70
2022-09-21T03:33:25.260Z,26.70
2022-09-21T03:35:58.019Z,26.70
2022-09-21T03:38:27.428Z,26.70
2022-09-21T03:40:59.012Z,26.70
2022-09-21T03:43:30.608Z,26.70
2022-09-21T03:46:01.561Z,26.70
2022-09-21T03:48:33.405Z,26.70
2022-09-21T03:51:04.616Z,26.70
2022-09-21T03:53:36.685Z,26.70
2022-09-21T03:56:08.158Z,26.70
2022-09-21T03:58:41.062Z,26.70
2022-09-21T04:01:10.934Z,26.60
2022-09-21T04:03:43.023Z,26.70
2022-09-21T04:06:24.788Z,26.70
2022-09-21T04:08:56.800Z,26.70
2022-09-21T04:11:24.891Z,26.70
2022-09-21T04:13:58.340Z,26.70
2022-09-21T04:16:28.834Z,26.70
2022-09-21T04:18:59.263Z,26.70
2022-09-21T04:21:30.828Z,26.70
2022-09-21T04:24:02.825Z,26.70
2022-09-21T04:26:35.203Z,26.70
2022-09-21T04:29:14.064Z,26.70
2022-09-21T04:31:45.130Z,26.70
2022-09-21T04:34:14.895Z,26.70
2022-09-21T04:36:44.198Z,26.70
2022-09-21T04:39:12.111Z,26.70
2022-09-21T04:41:40.184Z,26.70
2022-09-21T04:44:07.675Z,26.70
2022-09-21T04:46:35.829Z,26.70
2022-09-21T04:49:04.432Z,26.70
2022-09-21T04:51:34.986Z,26.70
2022-09-21T04:54:05.507Z,26.70
2022-09-21T04:56:37.149Z,26.70
2022-09-21T04:59:08.630Z,26.70
2022-09-21T05:01:35.682Z,26.70
2022-09-21T05:04:04.986Z,26.70
2022-09-21T05:06:35.817Z,26.70
2022-09-21T05:09:23.965Z,26.70
2022-09-21T05:11:53.570Z,26.70
2022-09-21T05:14:32.699Z,26.60
2022-09-21T05:17:09.194Z,26.60
2022-09-21T05:19:37.187Z,26.60
2022-09-21T05:22:08.274Z,26.50
2022-09-21T05:24:39.036Z,26.50
2022-09-21T05:27:07.409Z,26.40
2022-09-21T05:29:36.312Z,26.50
2022-09-21T05:32:28.967Z,26.40
2022-09-21T05:35:26.772Z,26.40
2022-09-21T05:38:09.643Z,26.40
2022-09-21T05:40:40.723Z,26.40
2022-09-21T05:43:14.107Z,26.40
2022-09-21T05:45:51.813Z,26.40
2022-09-21T05:48:28.041Z,26.30
2022-09-21T05:51:10.362Z,26.30
2022-09-21T05:53:57.302Z,26.30
2022-09-21T05:56:51.676Z,26.30
2022-09-21T05:59:52.851Z,26.30
2022-09-21T06:02:47.151Z,26.30
2022-09-21T06:05:19.760Z,26.20
2022-09-21T06:07:57.717Z,26.30
2022-09-21T06:10:38.789Z,26.20
2022-09-21T06:13:09.622Z,26.20
2022-09-21T06:15:49.515Z,26.20
2022-09-21T06:18:19.406Z,26.20
2022-09-21T06:20:51.319Z,26.20
2022-09-21T06:23:18.624Z,26.20
2022-09-21T06:25:58.527Z,26.20
2022-09-21T06:28:27.310Z,26.20
2022-09-21T06:33:54.130Z,26.20
2022-09-21T06:36:25.724Z,26.20
2022-09-21T06:38:59.858Z,26.20
2022-09-21T06:41:29.179Z,26.20
2022-09-21T06:43:58.632Z,26.10
2022-09-21T06:46:28.121Z,26.20
2022-09-21T06:48:58.994Z,26.20
2022-09-21T06:51:25.275Z,26.20
2022-09-21T06:54:00.141Z,26.20
2022-09-21T06:56:27.723Z,26.20
2022-09-21T06:59:06.651Z,26.20
2022-09-21T07:01:38.024Z,26.10
2022-09-21T07:04:11.637Z,26.10
2022-09-21T07:06:41.542Z,26.10
2022-09-21T07:12:02.838Z,26.10
2022-09-21T07:14:41.158Z,26.10
2022-09-21T07:17:15.612Z,26.10
2022-09-21T07:19:49.258Z,26.10
2022-09-21T07:22:18.243Z,26.10
2022-09-21T07:24:45.143Z,26.10
2022-09-21T07:27:23.761Z,26.00
2022-09-21T07:29:59.145Z,26.10
2022-09-21T07:32:46.860Z,26.10
2022-09-21T07:35:16.426Z,26.10
2022-09-21T07:37:47.459Z,26.10
2022-09-21T07:40:14.466Z,26.10
2022-09-21T07:42:48.797Z,26.10
2022-09-21T07:45:26.778Z,26.10
2022-09-21T07:47:59.701Z,26.10
2022-09-21T07:50:36.971Z,26.10
2022-09-21T07:53:12.253Z,26.10
2022-09-21T07:55:42.433Z,26.10
2022-09-21T07:58:34.257Z,26.10
2022-09-21T08:01:10.598Z,26.00
2022-09-21T08:03:42.419Z,26.00
2022-09-21T08:06:19.521Z,26.00
2022-09-21T08:08:57.960Z,26.00
2022-09-21T08:11:32.898Z,26.00
2022-09-21T08:14:01.258Z,26.00
2022-09-21T08:16:30.305Z,26.00
2022-09-21T08:19:03.804Z,26.10
2022-09-21T08:21:37.136Z,26.00
2022-09-21T08:24:11.759Z,26.00
2022-09-21T08:26:52.804Z,26.00
2022-09-21T08:29:29.643Z,26.00
2022-09-21T08:31:58.856Z,26.00
2022-09-21T08:34:28.218Z,26.00
2022-09-21T08:37:02.809Z,26.00
2022-09-21T08:39:28.853Z,26.00
2022-09-21T08:42:25.687Z,26.00
2022-09-21T08:45:07.322Z,26.00
2022-09-21T08:47:52.247Z,26.00
2022-09-21T08:50:38.790Z,26.00
2022-09-21T08:53:29.235Z,26.00
2022-09-21T08:55:56.947Z,26.00
2022-09-21T08:58:31.497Z,26.00
2022-09-21T09:01:31.987Z,26.00
2022-09-21T09:04:46.631Z,26.00
2022-09-21T09:07:38.213Z,26.00
2022-09-21T09:10:43.014Z,26.00
2022-09-21T09:13:51.323Z,26.00
2022-09-21T09:16:31.810Z,26.00
2022-09-21T09:19:32.647Z,26.00
2022-09-21T09:22:05.729Z,26.00
2022-09-21T09:24:50.594Z,26.00
2022-09-21T09:27:37.080Z,26.00
2022-09-21T09:30:29.534Z,26.00
2022-09-21T09:33:51.527Z,26.00
2022-09-21T09:36:34.743Z,26.00
2022-09-21T09:39:22.513Z,26.00
2022-09-21T09:42:23.438Z,26.00
2022-09-21T09:45:09.972Z,26.00
2022-09-21T09:47:49.842Z,26.00
2022-09-21T09:50:22.280Z,26.00
2022-09-21T09:52:58.063Z,26.00
2022-09-21T09:55:45.514Z,26.00
2022-09-21T09:58:26.108Z,26.00
2022-09-21T10:00:58.963Z,26.00
2022-09-21T10:03:36.275Z,26.00
2022-09-21T10:06:15.741Z,26.00
2022-09-21T10:08:50.088Z,26.00
2022-09-21T10:11:22.590Z,26.00
2022-09-21T10:13:56.247Z,26.00
2022-09-21T10:16:30.595Z,26.00
2022-09-21T10:19:02.349Z,26.00
2022-09-21T10:21:51.281Z,26.00
2022-09-21T10:24:29.467Z,26.00
2022-09-21T10:27:28.038Z,26.00
2022-09-21T10:30:07.798Z,26.00
2022-09-21T10:33:00.035Z,26.00
2022-09-21T10:35:27.291Z,26.00
2022-09-21T10:38:22.415Z,26.00
2022-09-21T10:40:53.201Z,26.00
2022-09-21T10:43:42.605Z,26.00
2022-09-21T10:46:13.212Z,26.00
2022-09-21T10:48:48.488Z,26.00
2022-09-21T10:51:36.040Z,26.00
2022-09-21T10:54:13.743Z,26.00
2022-09-21T10:56:56.114Z,26.00
2022-09-21T10:59:33.748Z,26.00
2022-09-21T11:02:27.960Z,26.00
2022-09-21T11:05:06.749Z,26.00
2022-09-21T11:07:53.760Z,26.00
2022-09-21T11:10:34.643Z,26.00
2022-09-21T11:13:34.619Z,26.00
2022-09-21T11:16:20.968Z,26.00
2022-09-21T11:19:19.354Z,26.00
2022-09-21T11:22:07.908Z,26.00
2022-09-21T11:25:16.902Z,26.00
2022-09-21T11:27:54.045Z,26.00
2022-09-21T11:30:29.818Z,26.00
2022-09-21T11:33:24.298Z,26.00
2022-09-21T11:36:11.610Z,26.00
2022-09-21T11:38:58.071Z,26.00
2022-09-21T11:41:40.193Z,26.00
2022-09-21T11:44:19.344Z,26.00
2022-09-21T11:46:58.608Z,26.00
2022-09-21T11:50:03.112Z,26.00
2022-09-21T11:53:18.657Z,26.00
2022-09-21T11:56:00.140Z,26.00
2022-09-21T11:58:43.050Z,26.00
2022-09-21T12:01:22.982Z,26.00
2022-09-21T12:04:22.001Z,26.00
2022-09-21T12:07:29.901Z,26.00
2022-09-21T12:10:22.405Z,26.00
2022-09-21T12:13:08.420Z,26.00
2022-09-21T12:16:02.487Z,26.00
2022-09-21T12:18:59.217Z,26.00
2022-09-21T12:22:07.233Z,26.00
2022-09-21T12:24:45.587Z,26.00
2022-09-21T12:27:36.469Z,26.00
2022-09-21T12:30:21.168Z,26.00
2022-09-21T12:33:23.063Z,26.00
2022-09-21T12:36:48.473Z,26.00
2022-09-21T12:39:42.912Z,26.00
2022-09-21T12:42:41.754Z,26.00
2022-09-21T12:45:46.253Z,26.00
2022-09-21T12:48:44.269Z,26.00
2022-09-21T12:51:28.611Z,26.00
2022-09-21T12:54:05.476Z,26.00
2022-09-21T12:56:49.244Z,26.00
2022-09-21T12:59:31.840Z,26.00
2022-09-21T13:02:26.100Z,26.00
2022-09-21T13:05:35.105Z,26.00
2022-09-21T13:08:30.434Z,26.00
2022-09-21T13:11:11.419Z,26.00
2022-09-21T13:13:45.097Z,26.00
2022-09-21T13:16:35.488Z,26.00
2022-09-21T13:19:22.064Z,26.00
2022-09-21T13:22:23.734Z,26.00
2022-09-21T13:25:06.462Z,26.00
2022-09-21T13:28:04.211Z,26.00
2022-09-21T13:30:51.337Z,26.00
2022-09-21T13:33:30.044Z,26.00
2022-09-21T13:36:10.874Z,26.00
2022-09-21T13:39:01.770Z,26.00
2022-09-21T13:42:01.808Z,26.00
2022-09-21T13:44:45.610Z,26.00
2022-09-21T13:47:17.448Z,26.00
2022-09-21T13:50:00.636Z,26.00
2022-09-21T13:52:41.324Z,26.00
2022-09-21T13:55:38.539Z,26.00
2022-09-21T13:58:32.416Z,25.90
2022-09-21T14:01:46.364Z,25.90
2022-09-21T14:04:29.928Z,26.00
2022-09-21T14:06:57.673Z,26.00
2022-09-21T14:10:05.215Z,25.90
2022-09-21T14:12:45.773Z,26.00
2022-09-21T14:15:26.230Z,25.90
2022-09-21T14:18:19.100Z,25.90
2022-09-21T14:21:28.262Z,25.90
2022-09-21T14:24:07.318Z,25.90
2022-09-21T14:27:04.184Z,25.90
2022-09-21T14:30:07.622Z,25.90
2022-09-21T14:32:57.511Z,25.90
2022-09-21T14:35:33.665Z,25.90
2022-09-21T14:38:23.314Z,25.90
2022-09-21T14:40:52.049Z,25.90
2022-09-21T14:43:35.419Z,25.90
2022-09-21T14:46:21.723Z,25.90
2022-09-21T14:49:24.616Z,25.90
2022-09-21T14:52:18.091Z,25.90
2022-09-21T14:55:11.765Z,25.90
2022-09-21T14:57:58.385Z,25.90
2022-09-21T15:00:53.726Z,25.90
2022-09-21T15:03:39.768Z,25.90
2022-09-21T15:06:56.123Z,25.90
2022-09-21T15:09:47.875Z,25.90
2022-09-21T15:12:30.597Z,25.90
2022-09-21T15:15:32.509Z,25.90
2022-09-21T15:18:03.602Z,25.90
2022-09-21T15:20:36.838Z,25.90
2022-09-21T15:23:21.431Z,25.90
2022-09-21T15:26:25.863Z,25.90
2022-09-21T15:29:20.926Z,25.90
2022-09-21T15:31:49.423Z,25.80
2022-09-21T15:34:26.429Z,25.90
2022-09-21T15:37:16.286Z,25.90
2022-09-21T15:39:45.529Z,25.90
2022-09-21T15:42:24.430Z,25.80
2022-09-21T15:45:20.579Z,25.90
2022-09-21T15:47:51.557Z,25.90
2022-09-21T15:50:23.139Z,25.90
2022-09-21T15:53:02.161Z,25.90
2022-09-21T15:55:35.676Z,25.80
2022-09-21T15:58:13.927Z,25.80
2022-09-21T16:00:54.248Z,25.80
2022-09-21T16:03:25.222Z,25.80
2022-09-21T16:05:58.846Z,25.80
2022-09-21T16:08:36.398Z,25.80
2022-09-21T16:11:29.079Z,25.80
2022-09-21T16:14:30.873Z,25.80
2022-09-21T16:17:18.020Z,25.80
2022-09-21T16:19:56.825Z,25.80
2022-09-21T16:22:29.828Z,25.80
2022-09-21T16:25:10.919Z,25.80
2022-09-21T16:27:53.633Z,25.80
2022-09-21T16:30:46.294Z,25.80
2022-09-21T16:33:43.521Z,25.80
2022-09-21T16:36:29.748Z,25.80
2022-09-21T16:38:57.213Z,25.80
2022-09-21T16:41:43.739Z,25.80
2022-09-21T16:44:47.915Z,25.80
2022-09-21T16:47:30.372Z,25.80
2022-09-21T16:50:06.957Z,25.80
2022-09-21T16:52:38.479Z,25.80
2022-09-21T16:55:13.113Z,25.80
2022-09-21T16:57:44.712Z,25.80
2022-09-21T17:00:17.248Z,25.80
2022-09-21T17:02:52.773Z,25.80
2022-09-21T17:05:39.443Z,25.90
2022-09-21T17:08:11.319Z,25.90
2022-09-21T17:10:49.715Z,25.90
2022-09-21T17:13:21.142Z,26.00
2022-09-21T17:15:53.959Z,26.00
2022-09-21T17:18:25.616Z,26.00
2022-09-21T17:21:04.589Z,26.00
2022-09-21T17:23:34.936Z,26.00
2022-09-21T17:26:23.021Z,26.00
2022-09-21T17:28:53.717Z,26.00
2022-09-21T17:31:25.211Z,26.00
2022-09-21T17:33:58.100Z,26.00
2022-09-21T17:36:30.912Z,26.10
2022-09-21T17:38:59.798Z,26.00
2022-09-21T17:41:58.023Z,26.10
2022-09-21T17:44:52.644Z,26.10
2022-09-21T17:47:34.348Z,26.10
2022-09-21T17:50:29.145Z,26.10
2022-09-21T17:53:23.273Z,26.10
2022-09-21T17:56:05.548Z,26.10
2022-09-21T17:59:00.443Z,26.10
2022-09-21T18:01:46.042Z,26.10
2022-09-21T18:04:17.985Z,26.20
2022-09-21T18:06:48.806Z,26.20
2022-09-21T18:09:25.507Z,26.20
2022-09-21T18:13:05.557Z,26.20
2022-09-21T18:16:06.572Z,26.20
2022-09-21T18:19:20.264Z,26.20
2022-09-21T18:21:55.607Z,26.20
2022-09-21T18:24:35.047Z,26.20
2022-09-21T18:27:06.245Z,26.20
2022-09-21T18:29:45.219Z,26.20
2022-09-21T18:32:32.367Z,26.20
2022-09-21T18:35:14.693Z,26.20
2022-09-21T18:38:15.997Z,26.20
2022-09-21T18:41:30.096Z,26.40
2022-09-21T18:44:24.213Z,26.30
2022-09-21T18:47:10.540Z,26.30
2022-09-21T18:50:13.494Z,26.20
2022-09-21T18:53:22.189Z,26.30
2022-09-21T18:55:53.679Z,26.20
2022-09-21T18:58:25.193Z,26.30
2022-09-21T19:00:57.118Z,26.20
2022-09-21T19:03:28.657Z,26.30
2022-09-21T19:06:37.365Z,26.30
2022-09-21T19:09:12.851Z,26.30
2022-09-21T19:11:53.149Z,26.30
2022-09-21T19:14:42.607Z,26.30
2022-09-21T19:17:21.361Z,26.30
2022-09-21T19:20:30.852Z,26.30
2022-09-21T19:23:32.841Z,26.30
2022-09-21T19:26:27.064Z,26.30
2022-09-21T19:29:29.718Z,26.30
2022-09-21T19:32:08.197Z,26.30
2022-09-21T19:34:47.092Z,26.30
2022-09-21T19:37:16.462Z,26.30
2022-09-21T19:39:50.249Z,26.30
2022-09-21T19:42:52.275Z,26.40
2022-09-21T19:45:52.175Z,26.30
2022-09-21T19:48:25.148Z,26.30
2022-09-21T19:51:03.788Z,26.40
2022-09-21T19:53:55.337Z,26.40
2022-09-21T19:56:55.297Z,26.30
2022-09-21T19:59:48.214Z,26.40
2022-09-21T20:02:27.247Z,26.40
2022-09-21T20:05:30.204Z,26.40
2022-09-21T20:08:14.926Z,26.40
2022-09-21T20:11:01.806Z,26.40
2022-09-21T20:13:49.256Z,26.40
2022-09-21T20:16:50.821Z,26.40
2022-09-21T20:19:46.890Z,26.40
2022-09-21T20:22:24.833Z,26.40
2022-09-21T20:24:59.380Z,26.40
2022-09-21T20:27:53.108Z,26.40
2022-09-21T20:30:36.232Z,26.40
2022-09-21T20:33:07.623Z,26.40
2022-09-21T20:35:38.191Z,26.40
2022-09-21T20:38:10.377Z,26.40
2022-09-21T20:40:48.211Z,26.40
2022-09-21T20:43:24.043Z,26.40
2022-09-21T20:45:55.617Z,26.40
2022-09-21T20:48:24.710Z,26.40
2022-09-21T20:51:01.805Z,26.40
2022-09-21T20:53:34.476Z,26.40
2022-09-21T20:56:06.428Z,26.40
2022-09-21T20:58:34.712Z,26.40
2022-09-21T21:01:10.007Z,26.40
2022-09-21T21:03:48.410Z,26.40
2022-09-21T21:06:20.115Z,26.40
2022-09-21T21:08:52.466Z,26.40
2022-09-21T21:11:24.287Z,26.40
2022-09-21T21:13:54.744Z,26.40
2022-09-21T21:16:26.727Z,26.40
2022-09-21T21:19:05.327Z,26.40
2022-09-21T21:21:34.987Z,26.40
2022-09-21T21:24:30.332Z,26.50
2022-09-21T21:27:09.256Z,26.40
2022-09-21T21:29:40.375Z,26.40
2022-09-21T21:32:13.087Z,26.50
2022-09-21T21:34:43.772Z,26.40
2022-09-21T21:37:16.891Z,26.40
2022-09-21T21:39:47.626Z,26.50
2022-09-21T21:42:21.252Z,26.50
2022-09-21T21:44:57.925Z,26.50
2022-09-21T21:47:45.610Z,26.50
2022-09-21T21:50:20.017Z,26.40
2022-09-21T21:52:50.619Z,26.50
2022-09-21T21:55:19.569Z,26.40
2022-09-21T21:57:51.381Z,26.50
2022-09-21T22:00:26.716Z,26.50
2022-09-21T22:03:03.002Z,26.40
2022-09-21T22:05:31.737Z,26.50
2022-09-21T22:08:01.710Z,26.50
2022-09-21T22:10:32.596Z,26.50
2022-09-21T22:13:08.115Z,26.50
2022-09-21T22:15:36.656Z,26.50
2022-09-21T22:18:04.363Z,26.50
2022-09-21T22:20:43.080Z,26.50
2022-09-21T22:23:16.976Z,26.50
2022-09-21T22:25:48.176Z,26.50
2022-09-21T22:28:21.938Z,26.50
2022-09-21T22:30:50.598Z,26.50
2022-09-21T22:33:31.184Z,26.50
2022-09-21T22:36:22.194Z,26.50
2022-09-21T22:38:55.612Z,26.50
2022-09-21T22:41:41.432Z,26.50
2022-09-21T22:44:08.525Z,26.50
2022-09-21T22:46:43.164Z,26.50
2022-09-21T22:49:15.004Z,26.50
2022-09-21T22:51:45.452Z,26.50
2022-09-21T22:54:25.441Z,26.50
2022-09-21T22:57:02.066Z,26.50
2022-09-21T22:59:34.919Z,26.50
2022-09-21T23:02:05.125Z,26.50
2022-09-21T23:04:33.005Z,26.50
2022-09-21T23:07:05.141Z,26.50
2022-09-21T23:09:37.678Z,26.50
2022-09-21T23:12:07.951Z,26.60
2022-09-21T23:14:37.886Z,26.50
2022-09-21T23:17:09.359Z,26.50
2022-09-21T23:19:40.406Z,26.50
2022-09-21T23:22:10.368Z,26.50
2022-09-21T23:24:39.520Z,26.60
2022-09-21T23:27:08.358Z,26.50
2022-09-21T23:29:40.205Z,26.50
2022-09-21T23:32:11.597Z,26.50
2022-09-21T23:34:42.416Z,26.60
2022-09-21T23:37:22.050Z,26.50
2022-09-21T23:39:54.153Z,26.60
2022-09-21T23:42:25.927Z,26.60
2022-09-21T23:44:57.336Z,26.60
2022-09-21T23:47:29.198Z,26.50
2022-09-21T23:50:01.681Z,26.60
2022-09-21T23:52:34.952Z,26.60
2022-09-21T23:55:09.494Z,26.60
2022-09-21T23:57:41.270Z,26.60
